sensor_id;sensor_type;location;lat;lon;timestamp;pressure;altitude;pressure_sealevel;temperature;humidity
36234;BME280;43467;50.890;5.982;2023-07-16T00:00:52;99599.50;;;20.17;79.20
36234;BME280;43467;50.890;5.982;2023-07-16T00:03:18;99588.06;;;20.06;79.37
36234;BME280;43467;50.890;5.982;2023-07-16T00:05:43;99595.41;;;20.13;78.62
36234;BME280;43467;50.890;5.982;2023-07-16T00:08:09;99610.50;;;20.24;78.67
36234;BME280;43467;50.890;5.982;2023-07-16T00:10:37;99605.44;;;20.21;78.55
36234;BME280;43467;50.890;5.982;2023-07-16T00:13:03;99602.22;;;20.08;78.89
36234;BME280;43467;50.890;5.982;2023-07-16T00:15:30;99609.97;;;20.11;79.27
36234;BME280;43467;50.890;5.982;2023-07-16T00:17:55;99604.72;;;20.19;78.35
36234;BME280;43467;50.890;5.982;2023-07-16T00:20:21;99610.81;;;20.11;78.76
36234;BME280;43467;50.890;5.982;2023-07-16T00:22:49;99597.53;;;20.10;78.61
36234;BME280;43467;50.890;5.982;2023-07-16T00:25:14;99604.06;;;19.98;79.28
36234;BME280;43467;50.890;5.982;2023-07-16T00:27:40;99608.44;;;19.99;79.06
36234;BME280;43467;50.890;5.982;2023-07-16T00:30:07;99601.13;;;19.91;79.22
36234;BME280;43467;50.890;5.982;2023-07-16T00:32:34;99585.72;;;19.74;79.28
36234;BME280;43467;50.890;5.982;2023-07-16T00:35:03;99609.19;;;19.81;79.03
36234;BME280;43467;50.890;5.982;2023-07-16T00:37:28;99607.78;;;19.77;79.07
36234;BME280;43467;50.890;5.982;2023-07-16T00:39:54;99610.75;;;19.74;79.13
36234;BME280;43467;50.890;5.982;2023-07-16T00:42:20;99607.50;;;19.71;79.20
36234;BME280;43467;50.890;5.982;2023-07-16T00:44:46;99606.94;;;19.67;79.20
36234;BME280;43467;50.890;5.982;2023-07-16T00:47:12;99594.38;;;19.58;79.28
36234;BME280;43467;50.890;5.982;2023-07-16T00:49:38;99588.56;;;19.63;79.10
36234;BME280;43467;50.890;5.982;2023-07-16T00:52:04;99603.28;;;19.68;78.56
36234;BME280;43467;50.890;5.982;2023-07-16T00:54:31;99602.84;;;19.63;78.92
36234;BME280;43467;50.890;5.982;2023-07-16T00:56:56;99597.78;;;19.60;78.81
36234;BME280;43467;50.890;5.982;2023-07-16T00:59:22;99609.34;;;19.70;78.78
36234;BME280;43467;50.890;5.982;2023-07-16T01:01:48;99596.38;;;19.56;78.33
36234;BME280;43467;50.890;5.982;2023-07-16T01:04:14;99598.91;;;19.58;78.59
36234;BME280;43467;50.890;5.982;2023-07-16T01:06:42;99593.56;;;19.48;78.13
36234;BME280;43467;50.890;5.982;2023-07-16T01:11:42;99593.78;;;19.35;78.30
36234;BME280;43467;50.890;5.982;2023-07-16T01:14:08;99615.03;;;19.48;78.39
36234;BME280;43467;50.890;5.982;2023-07-16T01:16:36;99603.81;;;19.33;78.40
36234;BME280;43467;50.890;5.982;2023-07-16T01:19:03;99583.19;;;19.24;78.28
36234;BME280;43467;50.890;5.982;2023-07-16T01:21:38;99616.53;;;19.31;78.12
36234;BME280;43467;50.890;5.982;2023-07-16T01:24:44;99603.53;;;19.27;78.28
36234;BME280;43467;50.890;5.982;2023-07-16T01:30:03;99634.47;;;19.21;78.05
36234;BME280;43467;50.890;5.982;2023-07-16T01:32:33;99620.88;;;19.13;77.83
36234;BME280;43467;50.890;5.982;2023-07-16T01:34:59;99640.38;;;19.25;77.72
36234;BME280;43467;50.890;5.982;2023-07-16T01:37:25;99633.31;;;19.24;77.83
36234;BME280;43467;50.890;5.982;2023-07-16T01:39:51;99616.38;;;19.14;77.34
36234;BME280;43467;50.890;5.982;2023-07-16T01:42:16;99628.94;;;19.13;77.03
36234;BME280;43467;50.890;5.982;2023-07-16T01:44:42;99629.94;;;19.22;76.79
36234;BME280;43467;50.890;5.982;2023-07-16T01:47:14;99637.00;;;19.13;76.19
36234;BME280;43467;50.890;5.982;2023-07-16T01:49:40;99633.75;;;19.19;76.08
36234;BME280;43467;50.890;5.982;2023-07-16T01:52:09;99649.00;;;19.19;75.63
36234;BME280;43467;50.890;5.982;2023-07-16T01:54:35;99650.13;;;19.16;75.60
36234;BME280;43467;50.890;5.982;2023-07-16T01:57:01;99620.69;;;18.95;74.95
36234;BME280;43467;50.890;5.982;2023-07-16T01:59:26;99646.00;;;19.12;74.58
36234;BME280;43467;50.890;5.982;2023-07-16T02:01:52;99656.34;;;19.07;74.92
36234;BME280;43467;50.890;5.982;2023-07-16T02:04:18;99652.66;;;19.08;74.38
36234;BME280;43467;50.890;5.982;2023-07-16T02:06:43;99643.91;;;19.06;73.78
36234;BME280;43467;50.890;5.982;2023-07-16T02:09:10;99631.19;;;18.98;73.55
36234;BME280;43467;50.890;5.982;2023-07-16T02:11:36;99637.25;;;18.91;73.10
36234;BME280;43467;50.890;5.982;2023-07-16T02:14:01;99665.50;;;18.95;73.04
36234;BME280;43467;50.890;5.982;2023-07-16T02:16:27;99653.88;;;18.85;72.29
36234;BME280;43467;50.890;5.982;2023-07-16T02:18:52;99658.09;;;18.78;72.99
36234;BME280;43467;50.890;5.982;2023-07-16T02:21:18;99670.50;;;18.79;72.66
36234;BME280;43467;50.890;5.982;2023-07-16T02:23:43;99677.72;;;18.78;72.99
36234;BME280;43467;50.890;5.982;2023-07-16T02:26:09;99677.16;;;18.84;72.61
36234;BME280;43467;50.890;5.982;2023-07-16T02:28:35;99663.28;;;18.70;72.60
36234;BME280;43467;50.890;5.982;2023-07-16T02:31:01;99688.56;;;18.77;72.73
36234;BME280;43467;50.890;5.982;2023-07-16T02:33:27;99685.75;;;18.78;72.40
36234;BME280;43467;50.890;5.982;2023-07-16T02:35:52;99679.78;;;18.75;72.25
36234;BME280;43467;50.890;5.982;2023-07-16T02:38:18;99671.72;;;18.65;72.27
36234;BME280;43467;50.890;5.982;2023-07-16T02:40:47;99674.00;;;18.70;72.00
36234;BME280;43467;50.890;5.982;2023-07-16T02:43:14;99672.53;;;18.56;72.36
36234;BME280;43467;50.890;5.982;2023-07-16T02:45:40;99689.91;;;18.62;72.25
36234;BME280;43467;50.890;5.982;2023-07-16T02:48:06;99696.66;;;18.56;72.05
36234;BME280;43467;50.890;5.982;2023-07-16T02:50:36;99698.47;;;18.55;71.39
36234;BME280;43467;50.890;5.982;2023-07-16T02:53:04;99684.28;;;18.44;71.51
36234;BME280;43467;50.890;5.982;2023-07-16T02:55:30;99709.78;;;18.59;71.43
36234;BME280;43467;50.890;5.982;2023-07-16T02:57:56;99704.00;;;18.54;71.00
36234;BME280;43467;50.890;5.982;2023-07-16T03:00:22;99707.66;;;18.53;71.11
36234;BME280;43467;50.890;5.982;2023-07-16T03:02:47;99707.25;;;18.58;71.21
36234;BME280;43467;50.890;5.982;2023-07-16T03:05:16;99705.53;;;18.56;70.69
36234;BME280;43467;50.890;5.982;2023-07-16T03:07:41;99688.50;;;18.46;71.00
36234;BME280;43467;50.890;5.982;2023-07-16T03:10:07;99687.69;;;18.46;71.13
36234;BME280;43467;50.890;5.982;2023-07-16T03:12:33;99703.84;;;18.55;70.82
36234;BME280;43467;50.890;5.982;2023-07-16T03:14:59;99701.44;;;18.52;70.82
36234;BME280;43467;50.890;5.982;2023-07-16T03:17:25;99690.88;;;18.40;70.44
36234;BME280;43467;50.890;5.982;2023-07-16T03:19:51;99695.84;;;18.44;70.73
36234;BME280;43467;50.890;5.982;2023-07-16T03:22:16;99708.81;;;18.39;70.85
36234;BME280;43467;50.890;5.982;2023-07-16T03:24:42;99724.75;;;18.41;70.98
36234;BME280;43467;50.890;5.982;2023-07-16T03:27:08;99718.25;;;18.34;71.45
36234;BME280;43467;50.890;5.982;2023-07-16T03:29:34;99712.91;;;18.23;71.45
36234;BME280;43467;50.890;5.982;2023-07-16T03:31:59;99719.72;;;18.27;71.75
36234;BME280;43467;50.890;5.982;2023-07-16T03:34:25;99705.41;;;18.17;72.14
36234;BME280;43467;50.890;5.982;2023-07-16T03:36:51;99715.75;;;18.21;72.63
36234;BME280;43467;50.890;5.982;2023-07-16T03:39:17;99723.91;;;18.20;72.95
36234;BME280;43467;50.890;5.982;2023-07-16T03:41:43;99721.34;;;18.18;72.83
36234;BME280;43467;50.890;5.982;2023-07-16T03:44:08;99719.31;;;18.10;73.36
36234;BME280;43467;50.890;5.982;2023-07-16T03:46:34;99729.28;;;18.20;73.14
36234;BME280;43467;50.890;5.982;2023-07-16T03:49:00;99725.44;;;18.01;73.93
36234;BME280;43467;50.890;5.982;2023-07-16T03:51:26;99740.06;;;18.08;73.70
36234;BME280;43467;50.890;5.982;2023-07-16T03:53:51;99715.00;;;17.98;73.48
36234;BME280;43467;50.890;5.982;2023-07-16T03:56:17;99731.44;;;18.05;73.30
36234;BME280;43467;50.890;5.982;2023-07-16T03:58:42;99737.03;;;18.02;73.07
36234;BME280;43467;50.890;5.982;2023-07-16T04:01:09;99731.34;;;17.95;72.83
36234;BME280;43467;50.890;5.982;2023-07-16T04:03:35;99752.97;;;18.03;72.67
36234;BME280;43467;50.890;5.982;2023-07-16T04:06:05;99748.84;;;17.99;72.06
36234;BME280;43467;50.890;5.982;2023-07-16T04:08:31;99745.00;;;17.92;71.82
36234;BME280;43467;50.890;5.982;2023-07-16T04:10:56;99753.47;;;17.97;71.49
36234;BME280;43467;50.890;5.982;2023-07-16T04:13:22;99743.88;;;17.95;71.13
36234;BME280;43467;50.890;5.982;2023-07-16T04:15:47;99754.47;;;17.96;70.46
36234;BME280;43467;50.890;5.982;2023-07-16T04:18:13;99756.31;;;17.96;70.65
36234;BME280;43467;50.890;5.982;2023-07-16T04:20:39;99763.53;;;17.84;70.79
36234;BME280;43467;50.890;5.982;2023-07-16T04:23:05;99755.25;;;17.87;70.95
36234;BME280;43467;50.890;5.982;2023-07-16T04:25:31;99751.97;;;17.84;70.66
36234;BME280;43467;50.890;5.982;2023-07-16T04:27:56;99737.03;;;17.70;70.00
36234;BME280;43467;50.890;5.982;2023-07-16T04:30:22;99773.63;;;17.92;70.75
36234;BME280;43467;50.890;5.982;2023-07-16T04:32:47;99754.38;;;17.87;70.24
36234;BME280;43467;50.890;5.982;2023-07-16T04:35:13;99785.78;;;17.96;70.13
36234;BME280;43467;50.890;5.982;2023-07-16T04:37:39;99778.97;;;17.92;69.91
36234;BME280;43467;50.890;5.982;2023-07-16T04:40:05;99780.31;;;17.86;69.70
36234;BME280;43467;50.890;5.982;2023-07-16T04:42:32;99791.72;;;17.99;69.42
36234;BME280;43467;50.890;5.982;2023-07-16T04:44:57;99799.38;;;18.04;68.95
36234;BME280;43467;50.890;5.982;2023-07-16T04:47:23;99791.59;;;18.01;68.54
36234;BME280;43467;50.890;5.982;2023-07-16T04:49:49;99798.00;;;18.09;68.58
36234;BME280;43467;50.890;5.982;2023-07-16T04:52:14;99796.78;;;18.14;67.86
36234;BME280;43467;50.890;5.982;2023-07-16T04:54:40;99813.47;;;18.17;67.24
36234;BME280;43467;50.890;5.982;2023-07-16T04:57:06;99814.75;;;18.23;67.23
36234;BME280;43467;50.890;5.982;2023-07-16T04:59:32;99813.88;;;18.33;67.14
36234;BME280;43467;50.890;5.982;2023-07-16T05:01:58;99804.56;;;18.17;66.91
36234;BME280;43467;50.890;5.982;2023-07-16T05:04:23;99823.19;;;18.39;66.35
36234;BME280;43467;50.890;5.982;2023-07-16T05:06:49;99812.53;;;18.28;66.19
36234;BME280;43467;50.890;5.982;2023-07-16T05:09:15;99827.38;;;18.32;66.19
36234;BME280;43467;50.890;5.982;2023-07-16T05:11:41;99782.91;;;18.08;66.32
36234;BME280;43467;50.890;5.982;2023-07-16T05:14:06;99827.19;;;18.24;65.85
36234;BME280;43467;50.890;5.982;2023-07-16T05:16:32;99816.91;;;18.08;66.45
36234;BME280;43467;50.890;5.982;2023-07-16T05:18:57;99841.31;;;18.26;65.75
36234;BME280;43467;50.890;5.982;2023-07-16T05:21:22;99829.00;;;18.23;66.29
36234;BME280;43467;50.890;5.982;2023-07-16T05:23:48;99830.88;;;18.11;65.81
36234;BME280;43467;50.890;5.982;2023-07-16T05:26:14;99834.97;;;18.27;65.64
36234;BME280;43467;50.890;5.982;2023-07-16T05:28:39;99846.91;;;18.23;65.48
36234;BME280;43467;50.890;5.982;2023-07-16T05:31:05;99830.63;;;18.15;64.76
36234;BME280;43467;50.890;5.982;2023-07-16T05:33:30;99836.78;;;18.26;64.20
36234;BME280;43467;50.890;5.982;2023-07-16T05:35:56;99839.41;;;18.17;63.95
36234;BME280;43467;50.890;5.982;2023-07-16T05:38:22;99824.19;;;18.06;63.93
36234;BME280;43467;50.890;5.982;2023-07-16T05:40:48;99859.66;;;18.30;63.83
36234;BME280;43467;50.890;5.982;2023-07-16T05:43:13;99842.56;;;18.22;63.77
36234;BME280;43467;50.890;5.982;2023-07-16T05:45:40;99854.78;;;18.35;63.39
36234;BME280;43467;50.890;5.982;2023-07-16T05:48:06;99850.66;;;18.31;63.64
36234;BME280;43467;50.890;5.982;2023-07-16T05:50:31;99853.47;;;18.30;62.70
36234;BME280;43467;50.890;5.982;2023-07-16T05:52:57;99843.78;;;18.18;62.99
36234;BME280;43467;50.890;5.982;2023-07-16T05:55:23;99854.47;;;18.29;62.91
36234;BME280;43467;50.890;5.982;2023-07-16T05:57:48;99844.69;;;18.28;62.75
36234;BME280;43467;50.890;5.982;2023-07-16T06:00:14;99850.72;;;18.20;62.23
36234;BME280;43467;50.890;5.982;2023-07-16T06:02:40;99868.81;;;18.28;62.35
36234;BME280;43467;50.890;5.982;2023-07-16T06:05:06;99859.47;;;18.22;62.35
36234;BME280;43467;50.890;5.982;2023-07-16T06:07:31;99871.19;;;18.21;62.49
36234;BME280;43467;50.890;5.982;2023-07-16T06:10:00;99879.53;;;18.28;62.13
36234;BME280;43467;50.890;5.982;2023-07-16T06:12:26;99879.75;;;18.36;62.68
36234;BME280;43467;50.890;5.982;2023-07-16T06:14:53;99876.09;;;18.37;61.96
36234;BME280;43467;50.890;5.982;2023-07-16T06:17:19;99869.69;;;18.28;61.82
36234;BME280;43467;50.890;5.982;2023-07-16T06:19:44;99880.56;;;18.47;61.79
36234;BME280;43467;50.890;5.982;2023-07-16T06:22:10;99881.53;;;18.58;61.30
36234;BME280;43467;50.890;5.982;2023-07-16T06:24:35;99882.34;;;18.26;60.99
36234;BME280;43467;50.890;5.982;2023-07-16T06:27:01;99877.59;;;18.30;61.32
36234;BME280;43467;50.890;5.982;2023-07-16T06:29:26;99882.28;;;18.48;61.31
36234;BME280;43467;50.890;5.982;2023-07-16T06:31:56;99899.91;;;18.51;60.98
36234;BME280;43467;50.890;5.982;2023-07-16T06:34:23;99885.59;;;18.41;60.92
36234;BME280;43467;50.890;5.982;2023-07-16T06:36:49;99902.38;;;18.43;61.00
36234;BME280;43467;50.890;5.982;2023-07-16T06:39:14;99883.94;;;18.29;61.41
36234;BME280;43467;50.890;5.982;2023-07-16T06:41:40;99891.81;;;18.41;61.50
36234;BME280;43467;50.890;5.982;2023-07-16T06:44:06;99900.72;;;18.42;61.16
36234;BME280;43467;50.890;5.982;2023-07-16T06:46:31;99904.81;;;18.57;61.32
36234;BME280;43467;50.890;5.982;2023-07-16T06:48:57;99902.84;;;18.59;60.82
36234;BME280;43467;50.890;5.982;2023-07-16T06:51:22;99909.59;;;18.53;60.64
36234;BME280;43467;50.890;5.982;2023-07-16T06:53:48;99914.09;;;18.53;61.19
36234;BME280;43467;50.890;5.982;2023-07-16T06:56:14;99849.78;;;18.42;60.96
36234;BME280;43467;50.890;5.982;2023-07-16T06:58:40;99898.16;;;18.72;60.56
36234;BME280;43467;50.890;5.982;2023-07-16T07:01:06;99901.69;;;18.73;60.66
36234;BME280;43467;50.890;5.982;2023-07-16T07:03:32;99886.25;;;18.65;60.85
36234;BME280;43467;50.890;5.982;2023-07-16T07:06:04;99901.22;;;18.88;61.16
36234;BME280;43467;50.890;5.982;2023-07-16T07:08:30;99905.03;;;18.86;60.40
36234;BME280;43467;50.890;5.982;2023-07-16T07:10:56;99885.13;;;18.68;60.21
36234;BME280;43467;50.890;5.982;2023-07-16T07:13:21;99875.91;;;18.61;60.63
36234;BME280;43467;50.890;5.982;2023-07-16T07:15:48;99909.53;;;18.85;59.64
36234;BME280;43467;50.890;5.982;2023-07-16T07:18:13;99911.25;;;18.86;59.86
36234;BME280;43467;50.890;5.982;2023-07-16T07:20:40;99899.94;;;18.83;60.34
36234;BME280;43467;50.890;5.982;2023-07-16T07:23:06;99889.06;;;18.84;59.52
36234;BME280;43467;50.890;5.982;2023-07-16T07:25:31;99911.88;;;18.99;59.05
36234;BME280;43467;50.890;5.982;2023-07-16T07:27:57;99913.88;;;18.97;59.43
36234;BME280;43467;50.890;5.982;2023-07-16T07:30:23;99936.22;;;19.08;59.28
36234;BME280;43467;50.890;5.982;2023-07-16T07:32:49;99919.34;;;19.17;58.98
36234;BME280;43467;50.890;5.982;2023-07-16T07:35:14;99902.66;;;19.13;58.49
36234;BME280;43467;50.890;5.982;2023-07-16T07:37:40;99897.66;;;18.99;58.39
36234;BME280;43467;50.890;5.982;2023-07-16T07:40:06;99913.00;;;19.18;58.72
36234;BME280;43467;50.890;5.982;2023-07-16T07:42:33;99921.84;;;19.29;58.69
36234;BME280;43467;50.890;5.982;2023-07-16T07:44:58;99925.25;;;19.31;58.32
36234;BME280;43467;50.890;5.982;2023-07-16T07:47:24;99938.81;;;19.51;58.91
36234;BME280;43467;50.890;5.982;2023-07-16T07:49:52;99948.75;;;19.60;59.29
36234;BME280;43467;50.890;5.982;2023-07-16T07:52:18;99930.00;;;19.48;57.81
36234;BME280;43467;50.890;5.982;2023-07-16T07:54:45;99865.03;;;19.03;57.42
36234;BME280;43467;50.890;5.982;2023-07-16T07:57:10;99894.72;;;19.12;57.89
36234;BME280;43467;50.890;5.982;2023-07-16T07:59:36;99932.00;;;19.46;57.66
36234;BME280;43467;50.890;5.982;2023-07-16T08:02:01;99913.84;;;19.39;57.82
36234;BME280;43467;50.890;5.982;2023-07-16T08:04:27;99946.09;;;19.69;57.46
36234;BME280;43467;50.890;5.982;2023-07-16T08:06:54;99909.25;;;19.51;57.14
36234;BME280;43467;50.890;5.982;2023-07-16T08:09:19;99935.13;;;19.52;57.64
36234;BME280;43467;50.890;5.982;2023-07-16T08:11:45;99940.81;;;19.58;57.26
36234;BME280;43467;50.890;5.982;2023-07-16T08:14:10;99956.25;;;19.66;56.75
36234;BME280;43467;50.890;5.982;2023-07-16T08:16:36;99957.09;;;19.66;56.90
36234;BME280;43467;50.890;5.982;2023-07-16T08:19:01;99954.28;;;19.68;57.37
36234;BME280;43467;50.890;5.982;2023-07-16T08:21:27;99950.88;;;19.66;57.10
36234;BME280;43467;50.890;5.982;2023-07-16T08:23:52;99963.50;;;19.75;56.09
36234;BME280;43467;50.890;5.982;2023-07-16T08:26:18;99959.56;;;19.79;56.71
36234;BME280;43467;50.890;5.982;2023-07-16T08:28:44;99958.59;;;19.89;56.27
36234;BME280;43467;50.890;5.982;2023-07-16T08:31:10;99931.69;;;19.70;56.74
36234;BME280;43467;50.890;5.982;2023-07-16T08:33:37;99965.56;;;19.92;56.32
36234;BME280;43467;50.890;5.982;2023-07-16T08:36:03;99945.72;;;19.83;56.16
36234;BME280;43467;50.890;5.982;2023-07-16T08:38:28;99964.19;;;20.07;55.72
36234;BME280;43467;50.890;5.982;2023-07-16T08:40:54;99939.28;;;19.95;55.71
36234;BME280;43467;50.890;5.982;2023-07-16T08:43:20;99948.59;;;19.91;55.81
36234;BME280;43467;50.890;5.982;2023-07-16T08:45:46;99881.50;;;19.71;55.18
36234;BME280;43467;50.890;5.982;2023-07-16T08:48:12;99940.41;;;20.03;54.94
36234;BME280;43467;50.890;5.982;2023-07-16T08:50:38;99888.00;;;19.78;55.24
36234;BME280;43467;50.890;5.982;2023-07-16T08:53:07;99973.97;;;20.18;54.18
36234;BME280;43467;50.890;5.982;2023-07-16T08:55:33;99950.63;;;20.09;54.24
36234;BME280;43467;50.890;5.982;2023-07-16T08:58:01;99944.41;;;20.18;54.02
36234;BME280;43467;50.890;5.982;2023-07-16T09:00:27;99958.34;;;20.32;54.17
36234;BME280;43467;50.890;5.982;2023-07-16T09:02:53;99976.03;;;20.35;54.04
36234;BME280;43467;50.890;5.982;2023-07-16T09:05:20;99954.47;;;20.16;54.14
36234;BME280;43467;50.890;5.982;2023-07-16T09:07:46;99946.63;;;20.33;54.15
36234;BME280;43467;50.890;5.982;2023-07-16T09:10:11;99964.31;;;20.36;53.69
36234;BME280;43467;50.890;5.982;2023-07-16T09:12:46;99948.16;;;20.36;53.18
36234;BME280;43467;50.890;5.982;2023-07-16T09:15:16;99976.63;;;20.48;54.26
36234;BME280;43467;50.890;5.982;2023-07-16T09:17:42;99971.28;;;20.67;54.00
36234;BME280;43467;50.890;5.982;2023-07-16T09:20:15;99970.00;;;20.71;52.85
36234;BME280;43467;50.890;5.982;2023-07-16T09:22:41;99939.13;;;20.56;51.81
36234;BME280;43467;50.890;5.982;2023-07-16T09:25:09;99942.81;;;20.55;51.31
36234;BME280;43467;50.890;5.982;2023-07-16T09:27:35;99972.44;;;20.74;51.87
36234;BME280;43467;50.890;5.982;2023-07-16T09:30:03;99900.59;;;20.46;50.81
36234;BME280;43467;50.890;5.982;2023-07-16T09:32:38;99949.75;;;20.58;50.86
36234;BME280;43467;50.890;5.982;2023-07-16T09:35:11;99965.63;;;20.70;51.12
36234;BME280;43467;50.890;5.982;2023-07-16T09:37:37;99982.88;;;20.87;50.20
36234;BME280;43467;50.890;5.982;2023-07-16T09:40:14;99989.41;;;20.84;50.67
36234;BME280;43467;50.890;5.982;2023-07-16T09:42:41;99997.78;;;20.81;50.48
36234;BME280;43467;50.890;5.982;2023-07-16T09:45:12;99999.19;;;20.85;50.18
36234;BME280;43467;50.890;5.982;2023-07-16T09:47:39;99995.91;;;20.92;50.62
36234;BME280;43467;50.890;5.982;2023-07-16T09:50:06;99958.81;;;20.76;49.73
36234;BME280;43467;50.890;5.982;2023-07-16T09:52:32;99987.88;;;21.11;50.51
36234;BME280;43467;50.890;5.982;2023-07-16T09:55:02;99998.38;;;21.14;49.27
36234;BME280;43467;50.890;5.982;2023-07-16T09:57:38;99973.28;;;20.94;49.87
36234;BME280;43467;50.890;5.982;2023-07-16T10:00:12;100012.09;;;21.30;49.26
36234;BME280;43467;50.890;5.982;2023-07-16T10:02:40;100009.13;;;21.23;49.16
36234;BME280;43467;50.890;5.982;2023-07-16T10:05:24;99997.78;;;21.10;49.57
36234;BME280;43467;50.890;5.982;2023-07-16T10:07:55;99996.94;;;21.29;50.60
36234;BME280;43467;50.890;5.982;2023-07-16T10:10:44;100001.16;;;21.31;49.26
36234;BME280;43467;50.890;5.982;2023-07-16T10:13:14;100010.22;;;21.40;49.20
36234;BME280;43467;50.890;5.982;2023-07-16T10:16:01;100003.44;;;21.46;48.85
36234;BME280;43467;50.890;5.982;2023-07-16T10:18:30;100006.53;;;21.51;49.16
36234;BME280;43467;50.890;5.982;2023-07-16T10:21:04;100009.53;;;21.48;49.00
36234;BME280;43467;50.890;5.982;2023-07-16T10:23:43;100018.56;;;21.56;48.91
36234;BME280;43467;50.890;5.982;2023-07-16T10:26:12;99983.47;;;21.19;48.63
36234;BME280;43467;50.890;5.982;2023-07-16T10:28:38;100004.28;;;21.56;49.88
36234;BME280;43467;50.890;5.982;2023-07-16T10:31:05;100005.09;;;21.66;49.56
36234;BME280;43467;50.890;5.982;2023-07-16T10:33:42;99969.56;;;21.43;48.67
36234;BME280;43467;50.890;5.982;2023-07-16T10:36:08;99988.69;;;21.50;48.89
36234;BME280;43467;50.890;5.982;2023-07-16T10:38:41;100001.06;;;21.79;48.45
36234;BME280;43467;50.890;5.982;2023-07-16T10:41:09;99975.00;;;21.70;47.11
36234;BME280;43467;50.890;5.982;2023-07-16T10:43:35;100016.63;;;22.05;47.58
36234;BME280;43467;50.890;5.982;2023-07-16T10:46:03;100003.00;;;21.97;46.97
36234;BME280;43467;50.890;5.982;2023-07-16T10:48:31;100017.22;;;21.99;46.88
36234;BME280;43467;50.890;5.982;2023-07-16T10:50:58;100020.75;;;21.99;47.17
36234;BME280;43467;50.890;5.982;2023-07-16T10:53:24;100024.13;;;22.01;47.12
36234;BME280;43467;50.890;5.982;2023-07-16T10:55:51;100014.06;;;22.03;46.24
36234;BME280;43467;50.890;5.982;2023-07-16T10:58:18;99990.84;;;21.83;46.07
36234;BME280;43467;50.890;5.982;2023-07-16T11:00:44;99968.88;;;21.78;45.35
36234;BME280;43467;50.890;5.982;2023-07-16T11:03:10;100002.41;;;22.12;45.62
36234;BME280;43467;50.890;5.982;2023-07-16T11:05:36;100018.34;;;22.33;45.66
36234;BME280;43467;50.890;5.982;2023-07-16T11:08:01;100031.44;;;22.46;45.99
36234;BME280;43467;50.890;5.982;2023-07-16T11:10:30;100043.72;;;22.40;44.84
36234;BME280;43467;50.890;5.982;2023-07-16T11:12:56;100022.47;;;22.28;44.83
36234;BME280;43467;50.890;5.982;2023-07-16T11:15:32;100044.84;;;22.38;45.20
36234;BME280;43467;50.890;5.982;2023-07-16T11:17:58;100009.00;;;22.28;44.83
36234;BME280;43467;50.890;5.982;2023-07-16T11:20:23;100042.94;;;22.48;45.05
36234;BME280;43467;50.890;5.982;2023-07-16T11:22:50;100033.81;;;22.31;44.44
36234;BME280;43467;50.890;5.982;2023-07-16T11:25:16;100022.13;;;22.40;45.39
36234;BME280;43467;50.890;5.982;2023-07-16T11:27:42;100046.16;;;22.61;45.76
36234;BME280;43467;50.890;5.982;2023-07-16T11:30:09;99994.88;;;22.34;45.21
36234;BME280;43467;50.890;5.982;2023-07-16T11:32:42;100056.31;;;22.77;44.63
36234;BME280;43467;50.890;5.982;2023-07-16T11:35:14;100032.31;;;22.74;44.01
36234;BME280;43467;50.890;5.982;2023-07-16T11:37:40;100037.19;;;22.60;44.28
36234;BME280;43467;50.890;5.982;2023-07-16T11:40:07;100044.13;;;22.73;44.13
36234;BME280;43467;50.890;5.982;2023-07-16T11:42:36;100045.81;;;22.74;44.12
36234;BME280;43467;50.890;5.982;2023-07-16T11:45:02;99997.94;;;22.48;44.23
36234;BME280;43467;50.890;5.982;2023-07-16T11:47:29;100039.59;;;22.63;43.88
36234;BME280;43467;50.890;5.982;2023-07-16T11:49:55;100042.19;;;22.55;44.25
36234;BME280;43467;50.890;5.982;2023-07-16T11:52:22;99979.25;;;22.10;44.32
36234;BME280;43467;50.890;5.982;2023-07-16T11:54:48;100031.53;;;22.36;44.60
36234;BME280;43467;50.890;5.982;2023-07-16T11:57:15;100004.38;;;22.38;44.51
36234;BME280;43467;50.890;5.982;2023-07-16T11:59:41;100053.22;;;22.72;44.21
36234;BME280;43467;50.890;5.982;2023-07-16T12:02:07;100019.72;;;22.64;43.98
36234;BME280;43467;50.890;5.982;2023-07-16T12:04:33;100063.59;;;22.94;43.92
36234;BME280;43467;50.890;5.982;2023-07-16T12:06:59;100052.34;;;22.98;43.26
36234;BME280;43467;50.890;5.982;2023-07-16T12:09:25;100061.25;;;22.99;43.17
36234;BME280;43467;50.890;5.982;2023-07-16T12:11:50;100048.53;;;22.91;43.45
36234;BME280;43467;50.890;5.982;2023-07-16T12:14:16;100048.78;;;22.98;44.17
36234;BME280;43467;50.890;5.982;2023-07-16T12:16:41;100047.59;;;22.83;43.61
36234;BME280;43467;50.890;5.982;2023-07-16T12:19:09;100057.66;;;22.90;43.77
36234;BME280;43467;50.890;5.982;2023-07-16T12:21:35;100068.91;;;22.86;43.92
36234;BME280;43467;50.890;5.982;2023-07-16T12:24:01;100066.19;;;22.86;44.31
36234;BME280;43467;50.890;5.982;2023-07-16T12:26:27;100070.88;;;22.84;44.31
36234;BME280;43467;50.890;5.982;2023-07-16T12:28:54;100067.19;;;22.85;44.59
36234;BME280;43467;50.890;5.982;2023-07-16T12:31:21;100017.59;;;22.58;44.43
36234;BME280;43467;50.890;5.982;2023-07-16T12:33:48;100046.91;;;22.81;44.76
36234;BME280;43467;50.890;5.982;2023-07-16T12:36:14;100059.03;;;23.12;43.93
36234;BME280;43467;50.890;5.982;2023-07-16T12:38:41;100038.06;;;23.06;43.80
36234;BME280;43467;50.890;5.982;2023-07-16T12:41:08;99991.13;;;22.72;42.99
36234;BME280;43467;50.890;5.982;2023-07-16T12:43:34;100013.66;;;23.15;42.57
36234;BME280;43467;50.890;5.982;2023-07-16T12:46:03;100046.00;;;23.43;42.73
36234;BME280;43467;50.890;5.982;2023-07-16T12:48:31;100061.31;;;23.60;41.85
36234;BME280;43467;50.890;5.982;2023-07-16T12:50:59;100030.22;;;23.38;42.56
36234;BME280;43467;50.890;5.982;2023-07-16T12:53:25;100057.00;;;23.67;42.58
36234;BME280;43467;50.890;5.982;2023-07-16T12:55:52;100021.69;;;23.43;42.02
36234;BME280;43467;50.890;5.982;2023-07-16T12:58:18;99996.69;;;23.05;42.46
36234;BME280;43467;50.890;5.982;2023-07-16T13:00:44;100036.50;;;23.39;42.97